BZN weather

Gallatin Field
Bozeman, Montana, United States

Public forecast

Using degrees Fahrenheit for public forecast. Weather courtesy of forecast.io.

METAR (pilot weather report)

Retrieved 2019/06/25 15:56 UTC (59 minutes ago):

KBZN 251556Z 00000KT 10SM CLR 15/04 A2994 RMK AO2 SLP114 T01500039

TAF (pilot weather forecast)

Retrieved 2019/06/25 12:22 UTC (5 hours ago):

TAF KMCE 251120Z 2512/2612 28005KT P6SM SCT200= TAF KBZN 251120Z 2512/2618 VRB06KT P6SM SCT070 BKN150 TEMPO 2521/2601 VRB30G45KT -TSRA SCT030 OVC070CB